sensor_id;sensor_type;location;lat;lon;timestamp;temperature;humidity
71142;DHT22;58808;59.366;17.970;2023-05-10T00:00:35;9.80;67.40
71142;DHT22;58808;59.366;17.970;2023-05-10T00:03:01;9.80;67.60
71142;DHT22;58808;59.366;17.970;2023-05-10T00:05:26;9.80;68.10
71142;DHT22;58808;59.366;17.970;2023-05-10T00:07:52;9.80;68.40
71142;DHT22;58808;59.366;17.970;2023-05-10T00:10:18;9.80;69.30
71142;DHT22;58808;59.366;17.970;2023-05-10T00:12:44;9.70;68.90
71142;DHT22;58808;59.366;17.970;2023-05-10T00:15:11;9.60;69.70
71142;DHT22;58808;59.366;17.970;2023-05-10T00:17:36;9.60;70.00
71142;DHT22;58808;59.366;17.970;2023-05-10T00:20:02;9.60;70.20
71142;DHT22;58808;59.366;17.970;2023-05-10T00:22:30;9.60;70.50
71142;DHT22;58808;59.366;17.970;2023-05-10T00:24:57;9.50;71.30
71142;DHT22;58808;59.366;17.970;2023-05-10T00:27:23;9.50;71.50
71142;DHT22;58808;59.366;17.970;2023-05-10T00:29:49;9.50;72.00
71142;DHT22;58808;59.366;17.970;2023-05-10T00:32:14;9.40;72.00
71142;DHT22;58808;59.366;17.970;2023-05-10T00:34:40;9.50;72.40
71142;DHT22;58808;59.366;17.970;2023-05-10T00:37:06;9.50;72.30
71142;DHT22;58808;59.366;17.970;2023-05-10T00:39:32;9.50;72.70
71142;DHT22;58808;59.366;17.970;2023-05-10T00:41:57;9.30;73.50
71142;DHT22;58808;59.366;17.970;2023-05-10T00:44:23;9.30;73.90
71142;DHT22;58808;59.366;17.970;2023-05-10T00:46:49;9.30;74.10
71142;DHT22;58808;59.366;17.970;2023-05-10T00:49:15;9.30;74.20
71142;DHT22;58808;59.366;17.970;2023-05-10T00:51:42;9.20;75.00
71142;DHT22;58808;59.366;17.970;2023-05-10T00:54:10;9.30;75.30
71142;DHT22;58808;59.366;17.970;2023-05-10T00:56:37;9.30;75.20
71142;DHT22;58808;59.366;17.970;2023-05-10T00:59:03;9.20;75.90
71142;DHT22;58808;59.366;17.970;2023-05-10T01:01:29;9.20;75.90
71142;DHT22;58808;59.366;17.970;2023-05-10T01:03:55;9.30;76.10
71142;DHT22;58808;59.366;17.970;2023-05-10T01:06:21;9.20;76.70
71142;DHT22;58808;59.366;17.970;2023-05-10T01:08:47;9.20;76.70
71142;DHT22;58808;59.366;17.970;2023-05-10T01:11:13;9.10;77.30
71142;DHT22;58808;59.366;17.970;2023-05-10T01:13:41;9.10;77.80
71142;DHT22;58808;59.366;17.970;2023-05-10T01:16:08;9.00;78.50
71142;DHT22;58808;59.366;17.970;2023-05-10T01:18:36;9.00;78.80
71142;DHT22;58808;59.366;17.970;2023-05-10T01:37:16;8.70;84.50
71142;DHT22;58808;59.366;17.970;2023-05-10T01:39:50;8.70;84.80
71142;DHT22;58808;59.366;17.970;2023-05-10T01:42:21;8.70;85.60
71142;DHT22;58808;59.366;17.970;2023-05-10T01:45:04;8.70;86.10
71142;DHT22;58808;59.366;17.970;2023-05-10T01:47:44;8.70;86.30
71142;DHT22;58808;59.366;17.970;2023-05-10T01:50:18;8.80;86.20
71142;DHT22;58808;59.366;17.970;2023-05-10T01:52:49;8.70;87.30
71142;DHT22;58808;59.366;17.970;2023-05-10T01:55:18;8.60;88.80
71142;DHT22;58808;59.366;17.970;2023-05-10T01:57:48;8.60;89.80
71142;DHT22;58808;59.366;17.970;2023-05-10T02:00:17;8.60;90.00
71142;DHT22;58808;59.366;17.970;2023-05-10T02:02:48;8.60;90.50
71142;DHT22;58808;59.366;17.970;2023-05-10T02:05:17;8.60;90.50
71142;DHT22;58808;59.366;17.970;2023-05-10T02:07:43;8.70;90.70
71142;DHT22;58808;59.366;17.970;2023-05-10T02:10:10;8.80;90.60
71142;DHT22;58808;59.366;17.970;2023-05-10T02:12:44;8.80;90.70
71142;DHT22;58808;59.366;17.970;2023-05-10T02:15:14;8.80;90.70
71142;DHT22;58808;59.366;17.970;2023-05-10T02:17:42;8.70;91.30
71142;DHT22;58808;59.366;17.970;2023-05-10T02:20:09;8.60;91.90
71142;DHT22;58808;59.366;17.970;2023-05-10T02:22:36;8.70;92.00
71142;DHT22;58808;59.366;17.970;2023-05-10T02:25:03;8.70;92.00
71142;DHT22;58808;59.366;17.970;2023-05-10T02:27:30;8.60;92.20
71142;DHT22;58808;59.366;17.970;2023-05-10T02:29:57;8.70;92.40
71142;DHT22;58808;59.366;17.970;2023-05-10T02:32:25;8.60;92.60
71142;DHT22;58808;59.366;17.970;2023-05-10T02:34:52;8.70;92.80
71142;DHT22;58808;59.366;17.970;2023-05-10T02:37:21;8.70;93.00
71142;DHT22;58808;59.366;17.970;2023-05-10T02:39:49;8.60;93.60
71142;DHT22;58808;59.366;17.970;2023-05-10T02:42:21;8.60;94.00
71142;DHT22;58808;59.366;17.970;2023-05-10T02:44:50;8.60;94.40
71142;DHT22;58808;59.366;17.970;2023-05-10T02:47:18;8.50;94.70
71142;DHT22;58808;59.366;17.970;2023-05-10T02:49:44;8.60;94.90
71142;DHT22;58808;59.366;17.970;2023-05-10T02:52:10;8.50;95.00
71142;DHT22;58808;59.366;17.970;2023-05-10T02:54:49;8.50;95.40
71142;DHT22;58808;59.366;17.970;2023-05-10T02:57:16;8.50;95.50
71142;DHT22;58808;59.366;17.970;2023-05-10T02:59:45;8.50;95.70
71142;DHT22;58808;59.366;17.970;2023-05-10T03:02:14;8.40;96.10
71142;DHT22;58808;59.366;17.970;2023-05-10T03:04:40;8.40;96.40
71142;DHT22;58808;59.366;17.970;2023-05-10T03:07:06;8.40;96.80
71142;DHT22;58808;59.366;17.970;2023-05-10T03:09:33;8.40;97.00
71142;DHT22;58808;59.366;17.970;2023-05-10T03:20:48;8.60;97.10
71142;DHT22;58808;59.366;17.970;2023-05-10T03:25:45;8.60;96.90
71142;DHT22;58808;59.366;17.970;2023-05-10T03:28:13;8.60;96.80
71142;DHT22;58808;59.366;17.970;2023-05-10T03:30:41;8.60;96.60
71142;DHT22;58808;59.366;17.970;2023-05-10T03:33:07;8.50;96.80
71142;DHT22;58808;59.366;17.970;2023-05-10T03:35:33;8.40;97.20
71142;DHT22;58808;59.366;17.970;2023-05-10T03:37:59;8.40;97.60
71142;DHT22;58808;59.366;17.970;2023-05-10T03:40:26;8.60;97.30
71142;DHT22;58808;59.366;17.970;2023-05-10T03:42:54;8.60;97.00
71142;DHT22;58808;59.366;17.970;2023-05-10T03:45:20;8.60;97.40
71142;DHT22;58808;59.366;17.970;2023-05-10T03:47:46;8.60;97.20
71142;DHT22;58808;59.366;17.970;2023-05-10T03:50:12;8.60;97.10
71142;DHT22;58808;59.366;17.970;2023-05-10T03:52:37;8.60;97.00
71142;DHT22;58808;59.366;17.970;2023-05-10T03:55:05;8.60;96.90
71142;DHT22;58808;59.366;17.970;2023-05-10T03:57:32;8.70;96.70
71142;DHT22;58808;59.366;17.970;2023-05-10T03:59:57;8.70;96.60
71142;DHT22;58808;59.366;17.970;2023-05-10T04:02:23;8.70;96.50
71142;DHT22;58808;59.366;17.970;2023-05-10T04:04:49;8.80;96.40
71142;DHT22;58808;59.366;17.970;2023-05-10T04:07:14;8.90;95.90
71142;DHT22;58808;59.366;17.970;2023-05-10T04:09:40;9.00;95.40
71142;DHT22;58808;59.366;17.970;2023-05-10T04:12:06;9.00;94.80
71142;DHT22;58808;59.366;17.970;2023-05-10T04:14:32;9.10;94.60
71142;DHT22;58808;59.366;17.970;2023-05-10T04:16:58;9.20;93.80
71142;DHT22;58808;59.366;17.970;2023-05-10T04:19:28;9.30;93.50
71142;DHT22;58808;59.366;17.970;2023-05-10T04:21:54;9.30;93.50
71142;DHT22;58808;59.366;17.970;2023-05-10T04:24:19;9.40;93.10
71142;DHT22;58808;59.366;17.970;2023-05-10T04:26:45;9.40;92.60
71142;DHT22;58808;59.366;17.970;2023-05-10T04:29:11;9.50;92.30
71142;DHT22;58808;59.366;17.970;2023-05-10T04:31:37;9.60;92.00
71142;DHT22;58808;59.366;17.970;2023-05-10T04:34:02;9.70;91.50
71142;DHT22;58808;59.366;17.970;2023-05-10T04:36:28;9.70;91.00
71142;DHT22;58808;59.366;17.970;2023-05-10T04:38:54;9.80;90.70
71142;DHT22;58808;59.366;17.970;2023-05-10T04:41:20;9.80;90.30
71142;DHT22;58808;59.366;17.970;2023-05-10T04:43:46;9.90;90.00
71142;DHT22;58808;59.366;17.970;2023-05-10T04:46:12;10.00;88.60
71142;DHT22;58808;59.366;17.970;2023-05-10T04:48:37;10.10;87.50
71142;DHT22;58808;59.366;17.970;2023-05-10T04:51:03;10.10;87.00
71142;DHT22;58808;59.366;17.970;2023-05-10T04:53:29;10.20;86.00
71142;DHT22;58808;59.366;17.970;2023-05-10T04:55:55;10.30;85.30
71142;DHT22;58808;59.366;17.970;2023-05-10T04:58:21;10.30;84.40
71142;DHT22;58808;59.366;17.970;2023-05-10T05:00:46;10.40;83.30
71142;DHT22;58808;59.366;17.970;2023-05-10T05:03:12;10.40;83.20
71142;DHT22;58808;59.366;17.970;2023-05-10T05:05:38;10.50;81.80
71142;DHT22;58808;59.366;17.970;2023-05-10T05:08:04;10.50;81.30
71142;DHT22;58808;59.366;17.970;2023-05-10T05:10:30;10.60;80.90
71142;DHT22;58808;59.366;17.970;2023-05-10T05:12:56;10.60;80.40
71142;DHT22;58808;59.366;17.970;2023-05-10T05:15:21;10.70;80.10
71142;DHT22;58808;59.366;17.970;2023-05-10T05:17:47;10.70;79.70
71142;DHT22;58808;59.366;17.970;2023-05-10T05:20:13;10.80;79.30
71142;DHT22;58808;59.366;17.970;2023-05-10T05:22:38;10.80;78.50
71142;DHT22;58808;59.366;17.970;2023-05-10T05:25:05;10.90;78.40
71142;DHT22;58808;59.366;17.970;2023-05-10T05:27:31;10.90;78.30
71142;DHT22;58808;59.366;17.970;2023-05-10T05:29:57;10.90;78.10
71142;DHT22;58808;59.366;17.970;2023-05-10T05:32:24;10.90;78.30
71142;DHT22;58808;59.366;17.970;2023-05-10T05:34:50;11.00;78.20
71142;DHT22;58808;59.366;17.970;2023-05-10T05:37:16;11.00;78.00
71142;DHT22;58808;59.366;17.970;2023-05-10T05:39:43;11.10;77.20
71142;DHT22;58808;59.366;17.970;2023-05-10T05:42:09;11.10;77.00
71142;DHT22;58808;59.366;17.970;2023-05-10T05:44:35;11.10;77.20
71142;DHT22;58808;59.366;17.970;2023-05-10T05:47:01;11.20;76.10
71142;DHT22;58808;59.366;17.970;2023-05-10T05:49:27;11.20;75.00
71142;DHT22;58808;59.366;17.970;2023-05-10T05:51:52;11.30;75.40
71142;DHT22;58808;59.366;17.970;2023-05-10T05:54:18;11.30;75.10
71142;DHT22;58808;59.366;17.970;2023-05-10T05:56:44;11.40;75.30
71142;DHT22;58808;59.366;17.970;2023-05-10T05:59:10;11.40;75.20
71142;DHT22;58808;59.366;17.970;2023-05-10T06:01:36;11.50;74.70
71142;DHT22;58808;59.366;17.970;2023-05-10T06:04:02;11.50;74.60
71142;DHT22;58808;59.366;17.970;2023-05-10T06:06:28;11.70;73.30
71142;DHT22;58808;59.366;17.970;2023-05-10T06:08:54;11.80;73.10
71142;DHT22;58808;59.366;17.970;2023-05-10T06:11:20;11.90;72.90
71142;DHT22;58808;59.366;17.970;2023-05-10T06:13:49;11.90;72.00
71142;DHT22;58808;59.366;17.970;2023-05-10T06:16:15;12.00;71.80
71142;DHT22;58808;59.366;17.970;2023-05-10T06:18:40;12.00;71.20
71142;DHT22;58808;59.366;17.970;2023-05-10T06:21:06;12.10;70.90
71142;DHT22;58808;59.366;17.970;2023-05-10T06:23:32;12.20;70.80
71142;DHT22;58808;59.366;17.970;2023-05-10T06:25:58;12.30;69.70
71142;DHT22;58808;59.366;17.970;2023-05-10T06:28:23;12.30;69.60
71142;DHT22;58808;59.366;17.970;2023-05-10T06:30:49;12.30;70.00
71142;DHT22;58808;59.366;17.970;2023-05-10T06:33:15;12.40;69.30
71142;DHT22;58808;59.366;17.970;2023-05-10T06:35:41;12.40;68.70
71142;DHT22;58808;59.366;17.970;2023-05-10T06:38:07;12.50;68.30
71142;DHT22;58808;59.366;17.970;2023-05-10T06:40:33;12.60;67.70
71142;DHT22;58808;59.366;17.970;2023-05-10T06:42:58;12.60;67.30
71142;DHT22;58808;59.366;17.970;2023-05-10T06:45:24;12.80;66.30
71142;DHT22;58808;59.366;17.970;2023-05-10T06:47:50;12.90;65.50
71142;DHT22;58808;59.366;17.970;2023-05-10T06:50:15;13.00;65.10
71142;DHT22;58808;59.366;17.970;2023-05-10T06:52:41;13.20;63.00
71142;DHT22;58808;59.366;17.970;2023-05-10T06:55:08;13.30;63.10
71142;DHT22;58808;59.366;17.970;2023-05-10T06:57:34;13.40;61.80
71142;DHT22;58808;59.366;17.970;2023-05-10T07:00:00;13.40;61.10
71142;DHT22;58808;59.366;17.970;2023-05-10T07:02:25;13.60;60.60
71142;DHT22;58808;59.366;17.970;2023-05-10T07:04:51;13.80;60.20
71142;DHT22;58808;59.366;17.970;2023-05-10T07:07:18;14.30;57.90
71142;DHT22;58808;59.366;17.970;2023-05-10T07:09:43;14.60;56.80
71142;DHT22;58808;59.366;17.970;2023-05-10T07:12:09;14.90;55.60
71142;DHT22;58808;59.366;17.970;2023-05-10T07:14:35;15.00;54.70
71142;DHT22;58808;59.366;17.970;2023-05-10T07:17:00;15.10;54.50
71142;DHT22;58808;59.366;17.970;2023-05-10T07:19:26;15.10;53.80
71142;DHT22;58808;59.366;17.970;2023-05-10T07:21:52;15.20;53.00
71142;DHT22;58808;59.366;17.970;2023-05-10T07:24:18;15.40;51.60
71142;DHT22;58808;59.366;17.970;2023-05-10T07:26:43;15.50;51.30
71142;DHT22;58808;59.366;17.970;2023-05-10T07:29:09;15.60;49.80
71142;DHT22;58808;59.366;17.970;2023-05-10T07:31:35;15.70;49.70
71142;DHT22;58808;59.366;17.970;2023-05-10T07:34:01;15.90;48.20
71142;DHT22;58808;59.366;17.970;2023-05-10T07:36:26;16.00;48.40
71142;DHT22;58808;59.366;17.970;2023-05-10T07:38:53;16.10;47.80
71142;DHT22;58808;59.366;17.970;2023-05-10T07:41:18;16.30;47.70
71142;DHT22;58808;59.366;17.970;2023-05-10T07:43:44;16.40;47.00
71142;DHT22;58808;59.366;17.970;2023-05-10T07:46:10;16.50;46.00
71142;DHT22;58808;59.366;17.970;2023-05-10T07:48:37;16.80;44.60
71142;DHT22;58808;59.366;17.970;2023-05-10T07:51:03;16.80;43.90
71142;DHT22;58808;59.366;17.970;2023-05-10T07:53:28;16.80;43.60
71142;DHT22;58808;59.366;17.970;2023-05-10T07:55:57;16.80;43.10
71142;DHT22;58808;59.366;17.970;2023-05-10T07:58:24;16.80;43.70
71142;DHT22;58808;59.366;17.970;2023-05-10T08:00:50;17.10;43.90
71142;DHT22;58808;59.366;17.970;2023-05-10T08:03:16;17.30;42.40
71142;DHT22;58808;59.366;17.970;2023-05-10T08:05:42;17.40;40.70
71142;DHT22;58808;59.366;17.970;2023-05-10T08:08:08;17.30;41.20
71142;DHT22;58808;59.366;17.970;2023-05-10T08:10:33;17.30;40.50
71142;DHT22;58808;59.366;17.970;2023-05-10T08:12:59;17.40;39.70
71142;DHT22;58808;59.366;17.970;2023-05-10T08:15:25;17.40;39.20
71142;DHT22;58808;59.366;17.970;2023-05-10T08:17:54;17.50;39.60
71142;DHT22;58808;59.366;17.970;2023-05-10T08:20:20;17.70;39.30
71142;DHT22;58808;59.366;17.970;2023-05-10T08:22:46;17.60;38.00
71142;DHT22;58808;59.366;17.970;2023-05-10T08:25:12;17.60;38.80
71142;DHT22;58808;59.366;17.970;2023-05-10T08:27:37;17.80;38.40
71142;DHT22;58808;59.366;17.970;2023-05-10T08:30:03;18.10;37.90
71142;DHT22;58808;59.366;17.970;2023-05-10T08:32:29;18.20;37.40
71142;DHT22;58808;59.366;17.970;2023-05-10T08:34:55;18.00;37.10
71142;DHT22;58808;59.366;17.970;2023-05-10T08:37:23;17.90;37.40
71142;DHT22;58808;59.366;17.970;2023-05-10T08:39:48;17.80;37.10
71142;DHT22;58808;59.366;17.970;2023-05-10T08:42:19;18.20;37.10
71142;DHT22;58808;59.366;17.970;2023-05-10T08:44:47;18.10;35.40
71142;DHT22;58808;59.366;17.970;2023-05-10T08:47:16;17.90;35.60
71142;DHT22;58808;59.366;17.970;2023-05-10T08:49:44;18.10;35.90
71142;DHT22;58808;59.366;17.970;2023-05-10T08:52:15;18.50;34.70
71142;DHT22;58808;59.366;17.970;2023-05-10T08:54:42;18.70;34.20
71142;DHT22;58808;59.366;17.970;2023-05-10T08:57:08;18.70;33.60
71142;DHT22;58808;59.366;17.970;2023-05-10T08:59:34;18.60;33.60
71142;DHT22;58808;59.366;17.970;2023-05-10T09:02:00;18.70;33.20
71142;DHT22;58808;59.366;17.970;2023-05-10T09:04:27;18.80;31.60
71142;DHT22;58808;59.366;17.970;2023-05-10T09:06:54;18.50;32.10
71142;DHT22;58808;59.366;17.970;2023-05-10T09:09:20;18.50;32.20
71142;DHT22;58808;59.366;17.970;2023-05-10T09:11:47;18.40;32.80
71142;DHT22;58808;59.366;17.970;2023-05-10T09:14:13;18.50;33.00
71142;DHT22;58808;59.366;17.970;2023-05-10T09:16:40;18.70;32.80
71142;DHT22;58808;59.366;17.970;2023-05-10T09:19:07;18.90;31.80
71142;DHT22;58808;59.366;17.970;2023-05-10T09:21:37;19.20;30.60
71142;DHT22;58808;59.366;17.970;2023-05-10T09:24:07;19.00;30.00
71142;DHT22;58808;59.366;17.970;2023-05-10T09:26:33;18.80;30.30
71142;DHT22;58808;59.366;17.970;2023-05-10T09:29:01;18.80;30.00
71142;DHT22;58808;59.366;17.970;2023-05-10T09:31:51;18.80;30.20
71142;DHT22;58808;59.366;17.970;2023-05-10T09:34:28;18.90;30.70
71142;DHT22;58808;59.366;17.970;2023-05-10T09:36:55;19.00;30.20
71142;DHT22;58808;59.366;17.970;2023-05-10T09:39:31;19.10;30.00
71142;DHT22;58808;59.366;17.970;2023-05-10T09:41:58;18.90;30.00
71142;DHT22;58808;59.366;17.970;2023-05-10T09:44:26;18.40;30.70
71142;DHT22;58808;59.366;17.970;2023-05-10T09:46:52;18.50;31.00
71142;DHT22;58808;59.366;17.970;2023-05-10T09:49:19;18.80;31.00
71142;DHT22;58808;59.366;17.970;2023-05-10T09:51:45;19.00;30.00
71142;DHT22;58808;59.366;17.970;2023-05-10T09:54:15;18.90;29.80
71142;DHT22;58808;59.366;17.970;2023-05-10T09:56:41;18.70;30.00
71142;DHT22;58808;59.366;17.970;2023-05-10T09:59:10;18.60;30.80
71142;DHT22;58808;59.366;17.970;2023-05-10T10:01:37;18.90;31.20
71142;DHT22;58808;59.366;17.970;2023-05-10T10:04:08;18.90;29.90
71142;DHT22;58808;59.366;17.970;2023-05-10T10:06:38;19.00;29.90
71142;DHT22;58808;59.366;17.970;2023-05-10T10:09:05;18.90;30.10
71142;DHT22;58808;59.366;17.970;2023-05-10T10:11:33;19.00;30.10
71142;DHT22;58808;59.366;17.970;2023-05-10T10:13:59;19.10;30.10
71142;DHT22;58808;59.366;17.970;2023-05-10T10:16:26;19.30;30.10
71142;DHT22;58808;59.366;17.970;2023-05-10T10:18:52;19.40;29.70
71142;DHT22;58808;59.366;17.970;2023-05-10T10:21:18;19.50;29.90
71142;DHT22;58808;59.366;17.970;2023-05-10T10:23:44;19.60;28.70
71142;DHT22;58808;59.366;17.970;2023-05-10T10:26:11;19.70;28.60
71142;DHT22;58808;59.366;17.970;2023-05-10T10:34:27;19.70;27.90
71142;DHT22;58808;59.366;17.970;2023-05-10T10:36:55;19.40;28.00
71142;DHT22;58808;59.366;17.970;2023-05-10T10:39:22;19.40;28.60
71142;DHT22;58808;59.366;17.970;2023-05-10T10:41:54;19.80;28.80
71142;DHT22;58808;59.366;17.970;2023-05-10T10:52:37;19.80;27.60
71142;DHT22;58808;59.366;17.970;2023-05-10T10:57:43;19.40;27.80
71142;DHT22;58808;59.366;17.970;2023-05-10T11:00:36;19.40;28.50
71142;DHT22;58808;59.366;17.970;2023-05-10T11:03:05;19.50;27.40
71142;DHT22;58808;59.366;17.970;2023-05-10T11:08:15;19.30;28.30
71142;DHT22;58808;59.366;17.970;2023-05-10T11:10:51;19.40;28.00
71142;DHT22;58808;59.366;17.970;2023-05-10T11:13:46;19.80;28.00
71142;DHT22;58808;59.366;17.970;2023-05-10T11:16:22;20.10;27.00
71142;DHT22;58808;59.366;17.970;2023-05-10T11:18:59;20.30;27.20
71142;DHT22;58808;59.366;17.970;2023-05-10T11:21:27;20.70;27.70
71142;DHT22;58808;59.366;17.970;2023-05-10T11:23:55;20.70;27.10
71142;DHT22;58808;59.366;17.970;2023-05-10T11:26:32;20.60;26.70
71142;DHT22;58808;59.366;17.970;2023-05-10T11:28:58;20.60;26.70
71142;DHT22;58808;59.366;17.970;2023-05-10T11:31:26;20.50;27.20
71142;DHT22;58808;59.366;17.970;2023-05-10T11:33:59;20.60;27.10
71142;DHT22;58808;59.366;17.970;2023-05-10T11:36:33;20.50;26.20
71142;DHT22;58808;59.366;17.970;2023-05-10T11:38:59;20.50;26.60
71142;DHT22;58808;59.366;17.970;2023-05-10T11:41:27;20.50;26.60
71142;DHT22;58808;59.366;17.970;2023-05-10T11:43:54;20.60;26.50
71142;DHT22;58808;59.366;17.970;2023-05-10T11:46:21;20.80;26.40
71142;DHT22;58808;59.366;17.970;2023-05-10T11:48:50;20.60;26.50
71142;DHT22;58808;59.366;17.970;2023-05-10T11:51:21;20.20;27.20
71142;DHT22;58808;59.366;17.970;2023-05-10T11:53:47;20.50;27.00
71142;DHT22;58808;59.366;17.970;2023-05-10T11:56:12;20.50;27.00
71142;DHT22;58808;59.366;17.970;2023-05-10T11:58:39;20.40;27.00
71142;DHT22;58808;59.366;17.970;2023-05-10T12:01:06;20.50;27.20
71142;DHT22;58808;59.366;17.970;2023-05-10T12:03:33;20.40;27.20
71142;DHT22;58808;59.366;17.970;2023-05-10T12:06:00;20.50;27.00
71142;DHT22;58808;59.366;17.970;2023-05-10T12:08:28;20.60;27.00
71142;DHT22;58808;59.366;17.970;2023-05-10T12:11:07;20.50;26.60
71142;DHT22;58808;59.366;17.970;2023-05-10T12:13:41;20.30;27.10
71142;DHT22;58808;59.366;17.970;2023-05-10T12:16:24;20.30;27.20
71142;DHT22;58808;59.366;17.970;2023-05-10T12:18:55;20.10;27.70
71142;DHT22;58808;59.366;17.970;2023-05-10T12:21:21;19.90;27.70
71142;DHT22;58808;59.366;17.970;2023-05-10T12:23:51;19.70;28.10
71142;DHT22;58808;59.366;17.970;2023-05-10T12:26:17;19.60;28.30
71142;DHT22;58808;59.366;17.970;2023-05-10T12:28:43;19.80;28.20
71142;DHT22;58808;59.366;17.970;2023-05-10T12:31:09;19.80;28.10
71142;DHT22;58808;59.366;17.970;2023-05-10T12:33:38;19.60;28.30
71142;DHT22;58808;59.366;17.970;2023-05-10T12:36:12;19.60;28.80
71142;DHT22;58808;59.366;17.970;2023-05-10T12:38:43;19.90;28.30
71142;DHT22;58808;59.366;17.970;2023-05-10T12:41:11;20.10;27.90
71142;DHT22;58808;59.366;17.970;2023-05-10T12:43:37;19.80;27.80
71142;DHT22;58808;59.366;17.970;2023-05-10T12:46:12;19.70;28.20
71142;DHT22;58808;59.366;17.970;2023-05-10T12:48:38;19.60;28.50
71142;DHT22;58808;59.366;17.970;2023-05-10T12:51:05;19.80;28.90
71142;DHT22;58808;59.366;17.970;2023-05-10T12:53:35;20.00;28.30
71142;DHT22;58808;59.366;17.970;2023-05-10T12:56:01;19.70;28.30
71142;DHT22;58808;59.366;17.970;2023-05-10T12:58:26;19.70;28.50
71142;DHT22;58808;59.366;17.970;2023-05-10T13:00:52;19.80;28.60
71142;DHT22;58808;59.366;17.970;2023-05-10T13:03:18;20.00;27.90
71142;DHT22;58808;59.366;17.970;2023-05-10T13:05:44;20.20;27.70
71142;DHT22;58808;59.366;17.970;2023-05-10T13:08:10;20.00;28.00
71142;DHT22;58808;59.366;17.970;2023-05-10T13:10:36;19.90;28.20
71142;DHT22;58808;59.366;17.970;2023-05-10T13:13:02;19.80;28.40
71142;DHT22;58808;59.366;17.970;2023-05-10T13:15:28;20.10;27.90
71142;DHT22;58808;59.366;17.970;2023-05-10T13:17:54;20.20;27.80
71142;DHT22;58808;59.366;17.970;2023-05-10T13:20:20;20.30;27.80
71142;DHT22;58808;59.366;17.970;2023-05-10T13:22:46;20.40;27.50
71142;DHT22;58808;59.366;17.970;2023-05-10T13:25:12;20.50;27.30
71142;DHT22;58808;59.366;17.970;2023-05-10T13:27:41;20.00;27.80
71142;DHT22;58808;59.366;17.970;2023-05-10T13:30:08;19.90;27.40
71142;DHT22;58808;59.366;17.970;2023-05-10T13:32:34;20.20;27.70
71142;DHT22;58808;59.366;17.970;2023-05-10T13:35:00;20.20;27.40
71142;DHT22;58808;59.366;17.970;2023-05-10T13:37:26;20.10;27.40
71142;DHT22;58808;59.366;17.970;2023-05-10T13:39:52;20.00;27.30
71142;DHT22;58808;59.366;17.970;2023-05-10T13:42:18;19.80;27.80
71142;DHT22;58808;59.366;17.970;2023-05-10T13:44:43;19.70;27.70
71142;DHT22;58808;59.366;17.970;2023-05-10T13:47:09;19.70;27.60
71142;DHT22;58808;59.366;17.970;2023-05-10T13:49:35;19.80;27.70
71142;DHT22;58808;59.366;17.970;2023-05-10T13:52:01;19.80;27.40
71142;DHT22;58808;59.366;17.970;2023-05-10T13:54:33;19.80;28.00
71142;DHT22;58808;59.366;17.970;2023-05-10T13:56:59;19.90;27.10
71142;DHT22;58808;59.366;17.970;2023-05-10T13:59:25;19.90;27.00
71142;DHT22;58808;59.366;17.970;2023-05-10T14:01:51;20.00;27.10
71142;DHT22;58808;59.366;17.970;2023-05-10T14:04:16;20.20;26.70
71142;DHT22;58808;59.366;17.970;2023-05-10T14:06:42;19.90;26.70
71142;DHT22;58808;59.366;17.970;2023-05-10T14:09:08;19.70;27.00
71142;DHT22;58808;59.366;17.970;2023-05-10T14:11:34;19.90;26.80
71142;DHT22;58808;59.366;17.970;2023-05-10T14:13:59;20.00;26.70
71142;DHT22;58808;59.366;17.970;2023-05-10T14:16:25;20.00;26.50
71142;DHT22;58808;59.366;17.970;2023-05-10T14:18:51;20.30;26.20
71142;DHT22;58808;59.366;17.970;2023-05-10T14:21:17;20.10;26.10
71142;DHT22;58808;59.366;17.970;2023-05-10T14:23:43;19.90;26.40
71142;DHT22;58808;59.366;17.970;2023-05-10T14:26:08;19.60;27.00
71142;DHT22;58808;59.366;17.970;2023-05-10T14:28:34;19.50;27.20
71142;DHT22;58808;59.366;17.970;2023-05-10T14:31:00;19.20;27.40
71142;DHT22;58808;59.366;17.970;2023-05-10T14:33:26;19.20;27.30
71142;DHT22;58808;59.366;17.970;2023-05-10T14:35:51;19.30;27.20
71142;DHT22;58808;59.366;17.970;2023-05-10T14:38:17;19.50;27.10
71142;DHT22;58808;59.366;17.970;2023-05-10T14:40:43;19.20;27.30
71142;DHT22;58808;59.366;17.970;2023-05-10T14:43:09;19.40;27.30
71142;DHT22;58808;59.366;17.970;2023-05-10T14:45:35;19.60;27.40
71142;DHT22;58808;59.366;17.970;2023-05-10T14:48:00;19.50;27.20
71142;DHT22;58808;59.366;17.970;2023-05-10T14:50:30;19.50;26.90
71142;DHT22;58808;59.366;17.970;2023-05-10T14:52:56;19.30;26.60
71142;DHT22;58808;59.366;17.970;2023-05-10T14:55:22;19.30;27.00
71142;DHT22;58808;59.366;17.970;2023-05-10T14:57:47;19.20;27.00
71142;DHT22;58808;59.366;17.970;2023-05-10T15:00:16;19.10;27.20
71142;DHT22;58808;59.366;17.970;2023-05-10T15:02:41;19.00;27.20
71142;DHT22;58808;59.366;17.970;2023-05-10T15:05:07;18.90;27.30
71142;DHT22;58808;59.366;17.970;2023-05-10T15:07:33;18.90;27.30
71142;DHT22;58808;59.366;17.970;2023-05-10T15:09:59;18.80;27.50
71142;DHT22;58808;59.366;17.970;2023-05-10T15:12:24;18.90;27.50
71142;DHT22;58808;59.366;17.970;2023-05-10T15:14:50;18.90;27.10
71142;DHT22;58808;59.366;17.970;2023-05-10T15:17:16;18.60;27.20
71142;DHT22;58808;59.366;17.970;2023-05-10T15:19:42;18.30;27.80
71142;DHT22;58808;59.366;17.970;2023-05-10T15:22:08;18.10;28.20
71142;DHT22;58808;59.366;17.970;2023-05-10T15:24:34;18.00;28.40
71142;DHT22;58808;59.366;17.970;2023-05-10T15:27:00;17.90;28.50
71142;DHT22;58808;59.366;17.970;2023-05-10T15:29:26;18.00;28.50
71142;DHT22;58808;59.366;17.970;2023-05-10T15:31:52;18.00;28.50
71142;DHT22;58808;59.366;17.970;2023-05-10T15:34:18;17.80;28.80
71142;DHT22;58808;59.366;17.970;2023-05-10T15:36:45;17.80;28.80
71142;DHT22;58808;59.366;17.970;2023-05-10T15:39:11;17.70;28.90
71142;DHT22;58808;59.366;17.970;2023-05-10T15:41:37;17.60;29.00
71142;DHT22;58808;59.366;17.970;2023-05-10T15:44:03;17.60;29.00
71142;DHT22;58808;59.366;17.970;2023-05-10T15:46:29;17.70;29.00
71142;DHT22;58808;59.366;17.970;2023-05-10T15:48:58;17.50;29.20
71142;DHT22;58808;59.366;17.970;2023-05-10T15:51:25;17.50;29.40
71142;DHT22;58808;59.366;17.970;2023-05-10T15:53:51;17.40;29.60
71142;DHT22;58808;59.366;17.970;2023-05-10T15:56:16;17.60;29.40
71142;DHT22;58808;59.366;17.970;2023-05-10T15:58:42;17.50;29.50
71142;DHT22;58808;59.366;17.970;2023-05-10T16:01:09;17.50;29.30
71142;DHT22;58808;59.366;17.970;2023-05-10T16:03:36;17.40;29.20
71142;DHT22;58808;59.366;17.970;2023-05-10T16:06:02;17.30;29.50